createdAt,value
2023-12-30T00:00:28.343Z,97463.34
2023-12-30T00:02:59.329Z,97467.16
2023-12-30T00:05:29.281Z,97464.75
2023-12-30T00:07:57.068Z,97475.28
2023-12-30T00:10:25.063Z,97482.59
2023-12-30T00:12:53.138Z,97475.88
2023-12-30T00:15:22.232Z,97481.31
2023-12-30T00:17:50.116Z,97489.44
2023-12-30T00:20:19.543Z,97493.25
2023-12-30T00:22:47.203Z,97497.03
2023-12-30T00:25:15.192Z,97499.75
2023-12-30T00:27:43.179Z,97497.84
2023-12-30T00:30:14.518Z,97502.47
2023-12-30T00:32:42.457Z,97495.16
2023-12-30T00:35:10.354Z,97492.25
2023-12-30T00:37:39.769Z,97493.84
2023-12-30T00:40:08.594Z,97497.66
2023-12-30T00:42:36.589Z,97489.53
2023-12-30T00:45:05.587Z,97492.25
2023-12-30T00:47:33.236Z,97474.38
2023-12-30T00:50:01.005Z,97479.78
2023-12-30T00:52:28.913Z,97491.44
2023-12-30T00:54:58.096Z,97486.31
2023-12-30T00:57:25.815Z,97482.00
2023-12-30T00:59:53.433Z,97475.00
2023-12-30T01:02:21.214Z,97476.59
2023-12-30T01:04:48.901Z,97475.00
2023-12-30T01:07:16.701Z,97471.75
2023-12-30T01:09:44.449Z,97473.38
2023-12-30T01:12:13.996Z,97467.16
2023-12-30T01:14:41.747Z,97463.63
2023-12-30T01:17:09.749Z,97463.94
2023-12-30T01:19:37.509Z,97470.16
2023-12-30T01:22:06.185Z,97473.94
2023-12-30T01:24:33.924Z,97466.94
2023-12-30T01:27:02.074Z,97465.34
2023-12-30T01:29:31.151Z,97469.94
2023-12-30T01:31:59.114Z,97471.34
2023-12-30T01:34:27.639Z,97477.88
2023-12-30T01:36:56.004Z,97478.16
2023-12-30T01:39:23.789Z,97483.59
2023-12-30T01:41:52.990Z,97478.47
2023-12-30T01:44:20.672Z,97486.59
2023-12-30T01:46:50.892Z,97492.00
2023-12-30T01:49:18.717Z,97492.81
2023-12-30T01:51:47.665Z,97495.22
2023-12-30T01:54:18.386Z,97500.03
2023-12-30T01:56:46.282Z,97511.88
2023-12-30T01:59:16.204Z,97509.16
2023-12-30T02:01:45.685Z,97517.28
2023-12-30T02:04:16.033Z,97507.56
2023-12-30T02:06:43.816Z,97510.50
2023-12-30T02:09:13.871Z,97510.78
2023-12-30T02:11:42.425Z,97512.38
2023-12-30T02:14:23.710Z,97521.31
2023-12-30T02:16:51.583Z,97511.28
2023-12-30T02:19:21.115Z,97525.09
2023-12-30T02:21:48.924Z,97509.16
2023-12-30T02:24:18.047Z,97527.03
2023-12-30T02:26:45.948Z,97524.31
2023-12-30T02:29:13.834Z,97533.22
2023-12-30T02:31:47.460Z,97529.75
2023-12-30T02:34:16.133Z,97535.94
2023-12-30T02:36:45.138Z,97528.09
2023-12-30T02:39:13.147Z,97537.03
2023-12-30T02:41:43.071Z,97527.31
2023-12-30T02:44:10.774Z,97521.09
2023-12-30T02:46:38.813Z,97527.63
2023-12-30T02:49:06.976Z,97527.31
2023-12-30T02:51:35.137Z,97528.09
2023-12-30T02:54:03.250Z,97526.50
2023-12-30T02:56:31.312Z,97528.09
2023-12-30T02:59:01.963Z,97527.63
2023-12-30T03:01:31.853Z,97531.44
2023-12-30T03:04:01.574Z,97536.03
2023-12-30T03:06:29.564Z,97531.72
2023-12-30T03:08:57.408Z,97531.72
2023-12-30T03:11:25.224Z,97542.56
2023-12-30T03:13:53.053Z,97545.56
2023-12-30T03:16:22.269Z,97545.56
2023-12-30T03:18:50.193Z,97551.56
2023-12-30T03:21:19.574Z,97552.16
2023-12-30T03:23:47.328Z,97555.97
2023-12-30T03:26:15.378Z,97566.78
2023-12-30T03:28:44.905Z,97566.28
2023-12-30T03:31:22.999Z,97570.91
2023-12-30T03:33:51.409Z,97565.47
2023-12-30T03:36:19.157Z,97566.78
2023-12-30T03:38:49.351Z,97573.81
2023-12-30T03:41:17.743Z,97572.09
2023-12-30T03:43:46.753Z,97579.16
2023-12-30T03:46:14.803Z,97571.03
2023-12-30T03:51:11.608Z,97576.94
2023-12-30T03:53:39.305Z,97580.75
2023-12-30T03:56:07.409Z,97578.06
2023-12-30T03:58:35.115Z,97582.06
2023-12-30T04:01:03.993Z,97574.22
2023-12-30T04:03:31.944Z,97586.66
2023-12-30T04:06:01.047Z,97585.88
2023-12-30T04:08:28.806Z,97580.47
2023-12-30T04:10:56.496Z,97580.16
2023-12-30T04:13:24.220Z,97581.53
2023-12-30T04:15:51.954Z,97579.66
2023-12-30T04:18:20.039Z,97583.47
2023-12-30T04:20:48.096Z,97585.06
2023-12-30T04:23:17.481Z,97567.22
2023-12-30T04:25:45.283Z,97567.22
2023-12-30T04:28:13.192Z,97564.50
2023-12-30T04:33:09.131Z,97575.34
2023-12-30T04:35:37.480Z,97567.22
2023-12-30T04:38:05.224Z,97565.63
2023-12-30T04:40:34.598Z,97569.41
2023-12-30T04:43:02.513Z,97581.88
2023-12-30T04:45:30.588Z,97571.81
2023-12-30T04:47:58.534Z,97584.56
2023-12-30T04:50:26.706Z,97584.56
2023-12-30T04:52:54.489Z,97584.03
2023-12-30T04:55:23.170Z,97589.47
2023-12-30T04:57:52.429Z,97586.22
2023-12-30T05:00:22.773Z,97587.88
2023-12-30T05:02:51.459Z,97590.88
2023-12-30T05:05:19.399Z,97584.63
2023-12-30T05:07:47.143Z,97598.75
2023-12-30T05:10:15.090Z,97593.34
2023-12-30T05:12:42.866Z,97598.56
2023-12-30T05:15:16.361Z,97591.53
2023-12-30T05:17:44.343Z,97592.31
2023-12-30T05:20:13.845Z,97591.81
2023-12-30T05:22:41.895Z,97595.03
2023-12-30T05:25:10.626Z,97599.03
2023-12-30T05:27:38.740Z,97594.44
2023-12-30T05:30:08.791Z,97599.28
2023-12-30T05:32:38.151Z,97593.84
2023-12-30T05:35:07.427Z,97587.88
2023-12-30T05:37:35.154Z,97603.53
2023-12-30T05:40:03.267Z,97607.31
2023-12-30T05:42:31.790Z,97601.59
2023-12-30T05:44:59.486Z,97609.72
2023-12-30T05:47:27.633Z,97605.72
2023-12-30T05:49:56.725Z,97618.66
2023-12-30T05:52:24.766Z,97592.84
2023-12-30T05:54:52.713Z,97605.91
2023-12-30T05:57:20.666Z,97603.53
2023-12-30T05:59:48.277Z,97612.44
2023-12-30T06:02:16.373Z,97611.31
2023-12-30T06:04:43.923Z,97618.94
2023-12-30T06:07:13.318Z,97615.94
2023-12-30T06:09:42.393Z,97612.44
2023-12-30T06:12:10.256Z,97614.94
2023-12-30T06:14:38.250Z,97618.66
2023-12-30T06:17:07.128Z,97621.38
2023-12-30T06:19:35.670Z,97616.25
2023-12-30T06:22:03.580Z,97629.50
2023-12-30T06:24:32.657Z,97627.38
2023-12-30T06:27:00.501Z,97629.78
2023-12-30T06:29:30.461Z,97628.97
2023-12-30T06:31:59.635Z,97631.19
2023-12-30T06:34:27.312Z,97624.94
2023-12-30T06:36:55.046Z,97630.38
2023-12-30T06:39:22.850Z,97642.00
2023-12-30T06:41:52.208Z,97637.66
2023-12-30T06:44:19.871Z,97641.19
2023-12-30T06:46:48.114Z,97633.38
2023-12-30T06:49:17.685Z,97645.31
2023-12-30T06:51:46.015Z,97641.00
2023-12-30T06:54:13.836Z,97638.28
2023-12-30T06:56:41.714Z,97644.00
2023-12-30T06:59:12.780Z,97647.78
2023-12-30T07:01:41.495Z,97654.28
2023-12-30T07:04:09.432Z,97647.56
2023-12-30T07:06:37.230Z,97658.41
2023-12-30T07:09:04.911Z,97660.59
2023-12-30T07:11:32.979Z,97658.97
2023-12-30T07:14:00.806Z,97661.38
2023-12-30T07:16:30.253Z,97663.31
2023-12-30T07:18:58.033Z,97661.63
2023-12-30T07:21:25.725Z,97666.44
2023-12-30T07:23:53.519Z,97676.69
2023-12-30T07:26:21.322Z,97671.25
2023-12-30T07:28:49.144Z,97673.97
2023-12-30T07:31:17.189Z,97674.78
2023-12-30T07:33:46.503Z,97683.69
2023-12-30T07:36:14.219Z,97688.03
2023-12-30T07:38:42.264Z,97683.13
2023-12-30T07:41:10.216Z,97679.63
2023-12-30T07:43:37.937Z,97683.69
2023-12-30T07:46:05.669Z,97688.53
2023-12-30T07:48:33.500Z,97686.41
2023-12-30T07:51:03.036Z,97678.88
2023-12-30T07:53:30.756Z,97687.31
2023-12-30T07:55:58.837Z,97684.88
2023-12-30T07:58:26.480Z,97680.56
2023-12-30T08:00:54.310Z,97683.88
2023-12-30T08:03:22.145Z,97690.38
2023-12-30T08:05:49.850Z,97698.78
2023-12-30T08:08:20.349Z,97692.00
2023-12-30T08:10:48.289Z,97702.56
2023-12-30T08:13:17.487Z,97694.22
2023-12-30T08:15:45.400Z,97695.03
2023-12-30T08:18:13.297Z,97690.97
2023-12-30T08:20:41.211Z,97685.34
2023-12-30T08:23:08.930Z,97681.91
2023-12-30T08:25:38.317Z,97681.09
2023-12-30T08:28:07.645Z,97690.53
2023-12-30T08:30:35.411Z,97698.34
2023-12-30T08:33:08.388Z,97697.56
2023-12-30T08:35:37.204Z,97704.59
2023-12-30T08:38:05.140Z,97701.34
2023-12-30T08:40:35.116Z,97697.56
2023-12-30T08:43:06.546Z,97704.06
2023-12-30T08:45:34.392Z,97706.75
2023-12-30T08:48:02.226Z,97711.38
2023-12-30T08:50:30.582Z,97711.69
2023-12-30T08:52:58.464Z,97706.56
2023-12-30T08:55:26.240Z,97721.97
2023-12-30T08:57:54.174Z,97720.16
2023-12-30T09:00:23.541Z,97712.91
2023-12-30T09:02:51.589Z,97707.78
2023-12-30T09:05:20.656Z,97718.88
2023-12-30T09:07:50.033Z,97711.88
2023-12-30T09:10:18.744Z,97715.69
2023-12-30T09:12:46.879Z,97714.94
2023-12-30T09:15:14.592Z,97716.28
2023-12-30T09:17:43.815Z,97715.78
2023-12-30T09:20:11.935Z,97719.31
2023-12-30T09:22:39.708Z,97722.31
2023-12-30T09:25:08.529Z,97727.72
2023-12-30T09:27:36.468Z,97726.06
2023-12-30T09:30:05.208Z,97731.19
2023-12-30T09:32:33.004Z,97729.59
2023-12-30T09:35:04.190Z,97727.19
2023-12-30T09:37:32.505Z,97732.59
2023-12-30T09:40:01.037Z,97733.69
2023-12-30T09:42:29.103Z,97737.19
2023-12-30T09:44:59.531Z,97735.88
2023-12-30T09:47:29.457Z,97732.38
2023-12-30T09:49:57.485Z,97735.38
2023-12-30T09:52:26.694Z,97735.66
2023-12-30T09:54:54.580Z,97732.94
2023-12-30T09:57:22.964Z,97723.50
2023-12-30T09:59:52.160Z,97725.09
2023-12-30T10:02:19.985Z,97731.63
2023-12-30T10:04:50.805Z,97731.91
2023-12-30T10:07:20.074Z,97731.09
2023-12-30T10:09:51.811Z,97733.28
2023-12-30T10:12:19.815Z,97728.94
2023-12-30T10:14:47.704Z,97729.22
2023-12-30T10:17:15.773Z,97733.03
2023-12-30T10:19:43.773Z,97738.44
2023-12-30T10:22:11.539Z,97733.03
2023-12-30T10:24:39.235Z,97726.31
2023-12-30T10:27:09.861Z,97722.78
2023-12-30T10:29:46.862Z,97730.91
2023-12-30T10:32:21.774Z,97724.72
2023-12-30T10:34:49.532Z,97725.00
2023-12-30T10:37:18.055Z,97722.56
2023-12-30T10:39:48.154Z,97723.69
2023-12-30T10:42:17.501Z,97727.16
2023-12-30T10:44:45.621Z,97720.16
2023-12-30T10:47:16.989Z,97724.75
2023-12-30T10:49:51.382Z,97720.97
2023-12-30T10:52:24.282Z,97719.34
2023-12-30T10:55:00.242Z,97716.63
2023-12-30T10:57:33.235Z,97689.69
2023-12-30T11:00:08.113Z,97710.16
2023-12-30T11:02:37.762Z,97700.69
2023-12-30T11:05:09.236Z,97700.41
2023-12-30T11:07:37.418Z,97703.13
2023-12-30T11:10:16.605Z,97705.03
2023-12-30T11:12:45.793Z,97701.50
2023-12-30T11:15:24.126Z,97701.50
2023-12-30T11:17:52.237Z,97699.91
2023-12-30T11:20:27.594Z,97705.59
2023-12-30T11:22:57.762Z,97702.06
2023-12-30T11:25:35.803Z,97713.72
2023-12-30T11:28:17.715Z,97719.94
2023-12-30T11:30:52.682Z,97708.31
2023-12-30T11:33:20.797Z,97714.53
2023-12-30T11:35:52.404Z,97705.06
2023-12-30T11:38:20.676Z,97702.97
2023-12-30T11:40:51.579Z,97702.19
2023-12-30T11:43:24.164Z,97698.66
2023-12-30T11:45:52.752Z,97693.53
2023-12-30T11:48:21.220Z,97679.50
2023-12-30T11:50:53.414Z,97688.69
2023-12-30T11:53:22.568Z,97688.94
2023-12-30T11:55:50.230Z,97687.84
2023-12-30T11:58:18.482Z,97679.72
2023-12-30T12:00:47.846Z,97683.75
2023-12-30T12:03:15.615Z,97686.19
2023-12-30T12:05:43.331Z,97679.94
2023-12-30T12:08:12.097Z,97675.84
2023-12-30T12:10:39.951Z,97672.06
2023-12-30T12:13:10.823Z,97667.47
2023-12-30T12:15:40.344Z,97664.97
2023-12-30T12:18:10.416Z,97660.38
2023-12-30T12:20:39.673Z,97663.59
2023-12-30T12:23:07.999Z,97658.72
2023-12-30T12:25:35.729Z,97653.03
2023-12-30T12:28:08.353Z,97646.50
2023-12-30T12:30:36.386Z,97654.34
2023-12-30T12:33:05.731Z,97648.94
2023-12-30T12:35:35.009Z,97640.53
2023-12-30T12:38:02.777Z,97630.53
2023-12-30T12:40:30.461Z,97635.94
2023-12-30T12:42:58.207Z,97631.31
2023-12-30T12:45:27.438Z,97624.84
2023-12-30T12:47:56.265Z,97629.44
2023-12-30T12:50:24.176Z,97636.44
2023-12-30T12:52:53.250Z,97629.13
2023-12-30T12:55:20.907Z,97623.44
2023-12-30T12:57:48.349Z,97623.94
2023-12-30T13:00:16.901Z,97624.22
2023-12-30T13:02:44.472Z,97617.75
2023-12-30T13:05:12.118Z,97616.94
2023-12-30T13:07:43.161Z,97616.13
2023-12-30T13:10:37.828Z,97614.22
2023-12-30T13:13:08.427Z,97616.94
2023-12-30T13:15:37.164Z,97609.63
2023-12-30T13:18:09.223Z,97608.81
2023-12-30T13:20:37.185Z,97607.72
2023-12-30T13:23:06.448Z,97613.94
2023-12-30T13:25:35.740Z,97606.13
2023-12-30T13:28:04.925Z,97607.72
2023-12-30T13:30:33.339Z,97602.84
2023-12-30T13:33:05.163Z,97602.84
2023-12-30T13:35:38.363Z,97601.72
2023-12-30T13:38:15.824Z,97599.56
2023-12-30T13:40:45.939Z,97587.91
2023-12-30T13:43:13.954Z,97588.75
2023-12-30T13:45:48.091Z,97587.91
2023-12-30T13:48:34.919Z,97588.75
2023-12-30T13:51:04.555Z,97594.66
2023-12-30T13:53:32.138Z,97590.84
2023-12-30T13:56:04.413Z,97585.44
2023-12-30T13:58:32.388Z,97589.75
2023-12-30T14:01:01.132Z,97585.94
2023-12-30T14:03:29.738Z,97584.34
2023-12-30T14:10:46.176Z,97583.25
2023-12-30T14:13:16.878Z,97585.94
2023-12-30T14:15:47.972Z,97583.53
2023-12-30T14:18:16.501Z,97582.72
2023-12-30T14:20:44.779Z,97585.44
2023-12-30T14:23:13.300Z,97588.94
2023-12-30T14:25:41.831Z,97583.53
2023-12-30T14:28:11.130Z,97592.47
2023-12-30T14:30:40.809Z,97583.81
2023-12-30T14:33:09.104Z,97579.53
2023-12-30T14:35:37.341Z,97576.53
2023-12-30T14:38:06.323Z,97580.31
2023-12-30T14:40:34.621Z,97583.81
2023-12-30T14:43:02.378Z,97577.91
2023-12-30T14:45:30.302Z,97568.19
2023-12-30T14:48:01.089Z,97567.88
2023-12-30T14:50:29.312Z,97567.88
2023-12-30T14:52:56.946Z,97562.47
2023-12-30T14:55:24.810Z,97567.09
2023-12-30T14:57:52.683Z,97563.88
2023-12-30T15:00:22.840Z,97552.22
2023-12-30T15:02:51.581Z,97551.44
2023-12-30T15:05:23.404Z,97558.47
2023-12-30T15:07:54.499Z,97551.44
2023-12-30T15:10:24.497Z,97551.28
2023-12-30T15:12:52.151Z,97551.00
2023-12-30T15:15:19.720Z,97555.53
2023-12-30T15:17:47.458Z,97551.97
2023-12-30T15:20:16.876Z,97550.56
2023-12-30T15:22:46.178Z,97542.53
2023-12-30T15:25:14.124Z,97548.22
2023-12-30T15:27:42.375Z,97543.13
2023-12-30T15:30:11.649Z,97543.13
2023-12-30T15:32:40.502Z,97545.00
2023-12-30T15:35:11.011Z,97541.19
2023-12-30T15:37:40.593Z,97540.13
2023-12-30T15:40:11.751Z,97534.72
2023-12-30T15:42:39.592Z,97540.91
2023-12-30T15:45:07.639Z,97544.72
2023-12-30T15:47:35.706Z,97546.31
2023-12-30T15:50:04.019Z,97547.94
2023-12-30T15:52:31.999Z,97538.72
2023-12-30T15:55:00.550Z,97539.81
2023-12-30T15:57:30.306Z,97534.13
2023-12-30T15:59:57.989Z,97540.31
2023-12-30T16:02:25.618Z,97546.56
2023-12-30T16:04:53.573Z,97543.56
2023-12-30T16:07:21.807Z,97543.31
2023-12-30T16:09:49.670Z,97537.69
2023-12-30T16:12:17.331Z,97542.88
2023-12-30T16:14:46.378Z,97538.88
2023-12-30T16:17:14.327Z,97541.28
2023-12-30T16:19:42.595Z,97544.81
2023-12-30T16:22:10.665Z,97541.00
2023-12-30T16:24:38.467Z,97539.09
2023-12-30T16:27:05.887Z,97545.28
2023-12-30T16:29:35.632Z,97540.69
2023-12-30T16:32:05.392Z,97540.69
2023-12-30T16:34:34.012Z,97533.41
2023-12-30T16:37:01.897Z,97530.09
2023-12-30T16:39:29.566Z,97533.91
2023-12-30T16:41:57.392Z,97533.91
2023-12-30T16:44:24.960Z,97528.47
2023-12-30T16:46:52.740Z,97533.41
2023-12-30T16:49:21.902Z,97530.69
2023-12-30T16:51:49.598Z,97529.88
2023-12-30T16:54:17.061Z,97532.00
2023-12-30T16:56:44.861Z,97537.69
2023-12-30T16:59:12.656Z,97537.19
2023-12-30T17:01:40.350Z,97529.06
2023-12-30T17:04:08.719Z,97533.69
2023-12-30T17:06:38.276Z,97538.28
2023-12-30T17:09:06.540Z,97537.19
2023-12-30T17:11:36.177Z,97527.47
2023-12-30T17:14:03.965Z,97532.88
2023-12-30T17:16:31.846Z,97527.47
2023-12-30T17:19:00.411Z,97517.22
2023-12-30T17:21:31.258Z,97524.22
2023-12-30T17:24:00.364Z,97528.03
2023-12-30T17:26:28.030Z,97522.63
2023-12-30T17:28:55.563Z,97518.53
2023-12-30T17:31:23.412Z,97516.13
2023-12-30T17:33:51.105Z,97518.81
2023-12-30T17:36:18.861Z,97522.34
2023-12-30T17:38:46.758Z,97526.66
2023-12-30T17:41:15.843Z,97524.22
2023-12-30T17:43:44.296Z,97524.22
2023-12-30T17:46:12.098Z,97514.47
2023-12-30T17:48:39.807Z,97515.03
2023-12-30T17:51:07.412Z,97516.94
2023-12-30T17:53:34.852Z,97506.13
2023-12-30T17:56:02.558Z,97506.94
2023-12-30T17:58:31.693Z,97505.81
2023-12-30T18:00:59.473Z,97504.22
2023-12-30T18:03:27.206Z,97503.13
2023-12-30T18:05:54.946Z,97504.22
2023-12-30T18:08:22.941Z,97493.41
2023-12-30T18:10:50.896Z,97497.19
2023-12-30T18:13:18.580Z,97493.41
2023-12-30T18:15:47.790Z,97493.41
2023-12-30T18:18:15.560Z,97489.59
2023-12-30T18:20:43.334Z,97489.06
2023-12-30T18:23:11.045Z,97490.69
2023-12-30T18:25:39.174Z,97482.59
2023-12-30T18:28:06.954Z,97489.88
2023-12-30T18:30:35.487Z,97491.00
2023-12-30T18:33:05.419Z,97491.78
2023-12-30T18:35:33.350Z,97490.19
2023-12-30T18:38:01.030Z,97486.38
2023-12-30T18:40:28.785Z,97486.38
2023-12-30T18:42:56.613Z,97487.47
2023-12-30T18:45:24.342Z,97479.34
2023-12-30T18:47:51.854Z,97483.66
2023-12-30T18:50:21.012Z,97478.56
2023-12-30T18:52:50.668Z,97476.94
2023-12-30T18:55:18.468Z,97483.97
2023-12-30T18:57:46.337Z,97482.34
2023-12-30T19:00:16.187Z,97482.34
2023-12-30T19:02:43.930Z,97483.16
2023-12-30T19:05:12.301Z,97476.16
2023-12-30T19:07:41.901Z,97466.13
2023-12-30T19:10:11.977Z,97467.53
2023-12-30T19:12:39.782Z,97470.75
2023-12-30T19:15:08.395Z,97469.13
2023-12-30T19:17:36.124Z,97453.56
2023-12-30T19:20:05.101Z,97469.66
2023-12-30T19:22:32.866Z,97458.81
2023-12-30T19:25:02.056Z,97456.13
2023-12-30T19:27:29.815Z,97449.13
2023-12-30T19:29:57.750Z,97453.41
2023-12-30T19:32:25.557Z,97445.31
2023-12-30T19:34:53.869Z,97444.47
2023-12-30T19:37:21.890Z,97445.31
2023-12-30T19:39:49.653Z,97446.91
2023-12-30T19:42:18.774Z,97446.13
2023-12-30T19:44:46.400Z,97444.47
2023-12-30T19:47:14.290Z,97438.28
2023-12-30T19:49:42.137Z,97440.19
2023-12-30T19:52:09.805Z,97435.59
2023-12-30T19:54:38.703Z,97438.28
2023-12-30T19:57:06.429Z,97432.88
2023-12-30T19:59:40.752Z,97430.19
2023-12-30T20:02:08.931Z,97432.06
2023-12-30T20:04:40.074Z,97430.19
2023-12-30T20:07:10.110Z,97426.66
2023-12-30T20:09:38.115Z,97422.06
2023-12-30T20:12:06.579Z,97421.25
2023-12-30T20:14:34.371Z,97411.84
2023-12-30T20:17:04.470Z,97406.13
2023-12-30T20:19:32.794Z,97403.44
2023-12-30T20:22:00.602Z,97405.31
2023-12-30T20:24:28.353Z,97397.19
2023-12-30T20:26:56.119Z,97400.72
2023-12-30T20:29:24.058Z,97395.59
2023-12-30T20:31:54.151Z,97390.19
2023-12-30T20:34:25.664Z,97395.59
2023-12-30T20:36:53.722Z,97384.78
2023-12-30T20:39:21.352Z,97389.38
2023-12-30T20:41:49.292Z,97383.97
2023-12-30T20:44:16.962Z,97380.97
2023-12-30T20:46:46.213Z,97370.16
2023-12-30T20:49:14.726Z,97378.28
2023-12-30T20:51:49.360Z,97370.16
2023-12-30T20:54:17.722Z,97365.84
2023-12-30T20:56:46.893Z,97365.03
2023-12-30T20:59:21.307Z,97369.66
2023-12-30T21:01:52.360Z,97372.38
2023-12-30T21:04:20.835Z,97369.66
2023-12-30T21:06:50.051Z,97369.66
2023-12-30T21:09:18.904Z,97366.16
2023-12-30T21:11:46.544Z,97366.44
2023-12-30T21:14:14.053Z,97367.25
2023-12-30T21:16:44.393Z,97359.94
2023-12-30T21:19:13.737Z,97352.91
2023-12-30T21:21:43.188Z,97350.22
2023-12-30T21:24:12.411Z,97338.59
2023-12-30T21:26:40.117Z,97350.22
2023-12-30T21:29:07.772Z,97349.91
2023-12-30T21:31:35.543Z,97340.50
2023-12-30T21:34:03.554Z,97349.09
2023-12-30T21:36:31.255Z,97333.19
2023-12-30T21:38:58.725Z,97343.69
2023-12-30T21:41:27.776Z,97330.47
2023-12-30T21:43:55.509Z,97334.00
2023-12-30T21:46:24.803Z,97336.69
2023-12-30T21:48:54.244Z,97332.88
2023-12-30T21:51:21.903Z,97327.47
2023-12-30T21:53:49.365Z,97317.75
2023-12-30T21:56:16.978Z,97323.16
2023-12-30T21:58:46.359Z,97311.53
2023-12-30T22:01:14.272Z,97304.25
2023-12-30T22:03:42.246Z,97302.66
2023-12-30T22:06:10.052Z,97310.75
2023-12-30T22:08:37.911Z,97308.06
2023-12-30T22:11:05.748Z,97311.25
2023-12-30T22:13:33.266Z,97322.06
2023-12-30T22:16:02.390Z,97308.84
2023-12-30T22:18:30.047Z,97300.22
2023-12-30T22:20:58.870Z,97302.66
2023-12-30T22:23:26.612Z,97292.41
2023-12-30T22:25:54.432Z,97303.72
2023-12-30T22:28:22.293Z,97296.72
2023-12-30T22:30:49.881Z,97292.13
2023-12-30T22:33:19.210Z,97297.53
2023-12-30T22:35:47.068Z,97283.19
2023-12-30T22:38:15.487Z,97288.59
2023-12-30T22:40:43.564Z,97282.72
2023-12-30T22:43:11.671Z,97287.00
2023-12-30T22:45:42.008Z,97279.78
2023-12-30T22:48:11.772Z,97289.72
2023-12-30T22:50:41.065Z,97280.78
2023-12-30T22:53:08.963Z,97275.38
2023-12-30T22:55:36.832Z,97269.97
2023-12-30T22:58:04.875Z,97251.34
2023-12-30T23:00:35.002Z,97257.56
2023-12-30T23:03:03.697Z,97246.75
2023-12-30T23:05:31.729Z,97250.56
2023-12-30T23:08:00.774Z,97242.94
2023-12-30T23:10:29.399Z,97240.53
2023-12-30T23:12:57.709Z,97231.31
2023-12-30T23:15:25.948Z,97215.41
2023-12-30T23:17:53.846Z,97217.00
2023-12-30T23:20:22.497Z,97218.88
2023-12-30T23:22:50.587Z,97212.69
2023-12-30T23:25:19.673Z,97207.28
2023-12-30T23:27:47.855Z,97210.78
2023-12-30T23:30:16.348Z,97208.06
2023-12-30T23:32:44.510Z,97197.25
2023-12-30T23:35:12.236Z,97196.19
2023-12-30T23:37:39.719Z,97187.53
2023-12-30T23:40:09.737Z,97191.84
2023-12-30T23:42:39.251Z,97180.25
2023-12-30T23:45:08.843Z,97178.66
2023-12-30T23:47:36.863Z,97172.44
2023-12-30T23:50:05.332Z,97174.03
2023-12-30T23:52:33.492Z,97172.44
2023-12-30T23:55:01.256Z,97174.03
2023-12-30T23:57:28.997Z,97167.03
2023-12-30T23:59:57.944Z,97166.22
